Time;durP1;ratioP1;P1;durP2;ratioP2;P2;SDS_P1;SDS_P2;PMS_P1;PMS_P2;Temp;Humidity;BMP_temperature;BMP_pressure;BME280_temperature;BME280_humidity;BME280_pressure;Samples;Min_cycle;Max_cycle;Signal;HPM_P1;HPM_P2
2021/12/20 00:01:46;;;;;;;9.43;1.00;;;6.70;99.90;;;;;;5011137;28;20034;-90
2021/12/20 00:04:12;;;;;;;16.45;1.42;;;6.80;99.90;;;;;;5026762;28;20018;-88
2021/12/20 00:06:37;;;;;;;15.50;1.27;;;6.70;99.90;;;;;;5011969;28;20025;-90
2021/12/20 00:09:04;;;;;;;14.48;1.10;;;6.80;99.90;;;;;;5010830;28;20131;-89
2021/12/20 00:11:29;;;;;;;15.50;1.77;;;6.80;99.90;;;;;;5010945;28;20049;-89
2021/12/20 00:13:55;;;;;;;16.52;1.58;;;6.80;99.90;;;;;;5010383;28;20026;-89
2021/12/20 00:16:21;;;;;;;13.07;0.90;;;6.80;99.90;;;;;;5011377;28;20061;-89
2021/12/20 00:18:46;;;;;;;15.10;1.25;;;6.80;99.90;;;;;;5008708;28;20030;-89
2021/12/20 00:21:12;;;;;;;10.30;1.15;;;6.80;99.90;;;;;;5011034;28;20755;-89
2021/12/20 00:23:38;;;;;;;13.88;1.10;;;6.80;99.90;;;;;;5006047;28;20030;-90
2021/12/20 00:26:04;;;;;;;14.50;1.08;;;6.80;99.90;;;;;;5010515;28;20058;-90
2021/12/20 00:28:30;;;;;;;13.07;0.82;;;6.70;99.90;;;;;;5009863;28;20077;-89
2021/12/20 00:30:56;;;;;;;13.30;1.33;;;6.80;99.90;;;;;;5009877;28;20028;-90
2021/12/20 00:33:22;;;;;;;16.15;1.23;;;6.80;99.90;;;;;;5003113;28;20038;-89
2021/12/20 00:35:48;;;;;;;8.95;0.98;;;6.80;99.90;;;;;;5010305;28;20022;-90
2021/12/20 00:40:58;;;;;;;14.68;1.33;;;6.70;99.90;;;;;;5010307;28;20037;-89
2021/12/20 00:43:24;;;;;;;9.63;1.25;;;6.70;99.90;;;;;;5009251;28;20040;-89
2021/12/20 00:45:50;;;;;;;26.02;1.98;;;6.70;99.90;;;;;;5025390;28;20040;-89
2021/12/20 00:48:16;;;;;;;9.30;0.82;;;6.70;99.90;;;;;;5010441;28;20018;-89
2021/12/20 00:50:42;;;;;;;23.02;1.20;;;6.70;99.90;;;;;;5006480;28;20113;-90
2021/12/20 00:53:10;;;;;;;13.30;1.63;;;6.70;99.90;;;;;;5010526;28;20577;-89
2021/12/20 00:55:35;;;;;;;8.48;0.68;;;6.70;99.90;;;;;;5007420;28;20375;-90
2021/12/20 00:58:01;;;;;;;19.27;1.52;;;6.70;99.90;;;;;;5009543;28;20045;-89
2021/12/20 01:00:35;;;;;;;13.15;0.85;;;6.70;99.90;;;;;;5009563;28;20453;-89
2021/12/20 01:03:04;;;;;;;20.13;1.77;;;6.70;99.90;;;;;;5006787;28;20030;-89
2021/12/20 01:05:30;;;;;;;17.45;1.73;;;6.70;99.90;;;;;;5009021;28;20046;-89
2021/12/20 01:07:59;;;;;;;21.92;2.03;;;6.60;99.90;;;;;;5009455;28;20034;-89
2021/12/20 01:10:25;;;;;;;16.00;1.00;;;6.70;99.90;;;;;;5008332;28;20060;-89
2021/12/20 01:12:53;;;;;;;15.63;2.03;;;6.70;99.90;;;;;;5008110;28;20412;-89
2021/12/20 01:15:27;;;;;;;18.33;1.83;;;6.70;99.90;;;;;;5011223;28;20037;-89
2021/12/20 01:17:53;;;;;;;25.67;2.85;;;6.70;99.90;;;;;;5000151;28;20026;-88
2021/12/20 01:20:20;;;;;;;17.98;1.27;;;6.60;99.90;;;;;;5003346;28;20076;-90
2021/12/20 01:22:47;;;;;;;17.92;0.90;;;6.60;99.90;;;;;;5007678;28;20433;-89
2021/12/20 01:25:13;;;;;;;15.25;1.67;;;6.70;99.90;;;;;;5010459;28;20049;-89
2021/12/20 01:27:39;;;;;;;19.17;1.02;;;6.70;99.90;;;;;;5009116;28;20482;-89
2021/12/20 01:30:06;;;;;;;15.70;1.20;;;6.60;99.90;;;;;;5009504;28;20029;-89
2021/12/20 01:32:32;;;;;;;14.65;1.20;;;6.60;99.90;;;;;;5007919;28;20030;-89
2021/12/20 01:34:58;;;;;;;19.95;1.20;;;6.60;99.90;;;;;;5009323;28;20399;-89
2021/12/20 01:37:23;;;;;;;19.75;1.23;;;6.60;99.90;;;;;;5006680;28;20425;-89
2021/12/20 01:39:49;;;;;;;18.48;1.80;;;6.60;99.90;;;;;;5009710;28;20053;-88
2021/12/20 01:42:22;;;;;;;15.27;1.35;;;6.60;99.90;;;;;;5009807;28;20022;-89
2021/12/20 01:44:49;;;;;;;11.30;1.20;;;6.60;99.90;;;;;;5010502;28;20025;-89
2021/12/20 01:47:15;;;;;;;17.90;2.20;;;6.60;99.90;;;;;;5008608;28;20048;-89
2021/12/20 01:49:55;;;;;;;18.08;1.55;;;6.60;99.90;;;;;;5024232;28;20117;-89
2021/12/20 01:52:24;;;;;;;12.77;1.25;;;6.60;99.90;;;;;;5007833;28;20292;-89
2021/12/20 01:54:50;;;;;;;28.40;1.70;;;6.60;99.90;;;;;;5008404;28;20463;-89
2021/12/20 01:57:15;;;;;;;13.27;1.00;;;6.60;99.90;;;;;;5008213;28;20041;-88
2021/12/20 01:59:42;;;;;;;18.08;2.10;;;6.60;99.90;;;;;;5009616;28;20057;-89
2021/12/20 02:02:08;;;;;;;22.85;2.05;;;6.50;99.90;;;;;;5010897;28;20022;-89
2021/12/20 02:04:43;;;;;;;15.73;1.05;;;6.50;99.90;;;;;;5013951;28;20026;-89
2021/12/20 02:07:19;;;;;;;20.20;1.88;;;6.50;99.90;;;;;;5009264;28;20034;-89
2021/12/20 02:09:45;;;;;;;19.02;1.65;;;6.50;99.90;;;;;;5014231;28;20033;-89
2021/12/20 02:12:10;;;;;;;17.33;1.77;;;6.40;99.90;;;;;;5013032;28;20030;-90
2021/12/20 02:14:36;;;;;;;17.45;2.55;;;6.40;99.90;;;;;;5032033;28;20040;-89
2021/12/20 02:17:02;;;;;;;16.00;1.15;;;6.40;99.90;;;;;;5012716;28;20084;-89
2021/12/20 02:19:27;;;;;;;20.63;1.38;;;6.40;99.90;;;;;;5005272;28;20026;-88
2021/12/20 02:21:53;;;;;;;25.20;1.67;;;6.40;99.90;;;;;;5012057;28;20010;-89
2021/12/20 02:24:18;;;;;;;21.65;1.45;;;6.40;99.90;;;;;;5013793;28;20034;-89
2021/12/20 02:26:44;;;;;;;17.45;1.73;;;6.40;99.90;;;;;;5014381;28;20029;-89
2021/12/20 02:29:10;;;;;;;15.40;2.05;;;6.40;99.90;;;;;;5011789;28;20033;-90
2021/12/20 02:39:40;;;;;;;20.02;1.70;;;6.40;99.90;;;;;;5016535;28;21506;-89
2021/12/20 02:42:06;;;;;;;19.73;2.22;;;6.40;99.90;;;;;;5014152;28;20022;-89
2021/12/20 02:44:32;;;;;;;19.17;1.42;;;6.40;99.90;;;;;;5013049;28;20044;-90
2021/12/20 02:49:27;;;;;;;14.25;1.48;;;6.30;99.90;;;;;;5013903;28;20109;-89
2021/12/20 02:51:58;;;;;;;10.80;1.23;;;6.40;99.90;;;;;;5010772;28;20505;-89
2021/12/20 02:54:24;;;;;;;18.75;1.65;;;6.40;99.90;;;;;;5013978;28;20038;-89
2021/12/20 02:56:50;;;;;;;22.50;1.15;;;6.30;99.90;;;;;;5013003;28;20049;-89
2021/12/20 02:59:16;;;;;;;16.42;1.40;;;6.30;99.90;;;;;;5012642;28;20049;-89
2021/12/20 03:01:44;;;;;;;16.90;2.00;;;6.30;99.90;;;;;;5013736;28;20030;-89
2021/12/20 03:04:10;;;;;;;17.95;1.80;;;6.30;99.90;;;;;;5013484;28;20079;-89
2021/12/20 03:06:41;;;;;;;24.17;1.98;;;6.40;99.90;;;;;;5014286;28;20121;-89
2021/12/20 03:09:12;;;;;;;18.55;2.22;;;6.30;99.90;;;;;;5011993;28;20054;-88
2021/12/20 03:11:38;;;;;;;28.45;1.30;;;6.30;99.90;;;;;;5012915;28;20037;-90
2021/12/20 03:14:12;;;;;;;15.68;1.20;;;6.30;99.90;;;;;;5012243;28;20109;-89
2021/12/20 03:16:37;;;;;;;22.02;1.75;;;6.30;99.90;;;;;;5007519;28;20036;-89
2021/12/20 03:19:04;;;;;;;18.13;1.77;;;6.30;99.90;;;;;;5011142;28;20416;-89
2021/12/20 03:21:30;;;;;;;15.98;1.48;;;6.30;99.90;;;;;;5008498;28;20487;-89
2021/12/20 03:23:56;;;;;;;13.02;1.00;;;6.30;99.90;;;;;;5012813;28;20378;-89
2021/12/20 03:26:22;;;;;;;21.15;1.48;;;6.30;99.90;;;;;;5012391;28;20046;-90
2021/12/20 03:28:47;;;;;;;13.57;1.70;;;6.30;99.90;;;;;;5012988;28;20034;-89
2021/12/20 03:31:13;;;;;;;21.23;1.42;;;6.30;99.90;;;;;;5011326;28;20037;-89
2021/12/20 03:33:39;;;;;;;18.42;1.52;;;6.30;99.90;;;;;;5012510;28;20058;-89
2021/12/20 03:36:05;;;;;;;17.10;1.45;;;6.30;99.90;;;;;;5012001;28;20034;-89
2021/12/20 03:38:30;;;;;;;21.02;1.45;;;6.30;99.90;;;;;;5012104;28;21556;-89
2021/12/20 03:40:56;;;;;;;21.05;1.67;;;6.30;99.90;;;;;;5012132;28;20034;-89
2021/12/20 03:43:24;;;;;;;17.13;1.38;;;6.30;99.90;;;;;;5012513;28;20071;-90
2021/12/20 03:45:56;;;;;;;24.15;1.23;;;6.30;99.90;;;;;;5012737;28;20045;-89
2021/12/20 03:48:22;;;;;;;22.08;1.20;;;6.30;99.90;;;;;;5012788;28;20428;-90
2021/12/20 03:50:48;;;;;;;23.73;1.70;;;6.30;99.90;;;;;;5013639;28;20069;-89
2021/12/20 03:53:13;;;;;;;17.63;1.20;;;6.30;99.90;;;;;;5021470;28;20052;-89
2021/12/20 03:55:39;;;;;;;20.20;1.23;;;6.30;99.90;;;;;;5012994;28;20036;-89
2021/12/20 03:58:04;;;;;;;23.13;2.05;;;6.30;99.90;;;;;;5012362;28;20140;-89
2021/12/20 04:00:30;;;;;;;12.13;1.10;;;6.30;99.90;;;;;;5011853;28;20037;-89
2021/12/20 04:02:56;;;;;;;19.08;1.25;;;6.30;99.90;;;;;;5012137;28;20018;-89
2021/12/20 04:05:21;;;;;;;14.77;1.05;;;6.30;99.90;;;;;;5011963;28;20033;-89
2021/12/20 04:07:47;;;;;;;19.15;1.50;;;6.30;99.90;;;;;;5013052;28;20041;-90
2021/12/20 04:10:12;;;;;;;19.10;2.38;;;6.30;99.90;;;;;;5012593;28;20474;-90
2021/12/20 04:12:38;;;;;;;20.58;1.50;;;6.30;99.90;;;;;;5012185;28;20025;-89
2021/12/20 04:15:05;;;;;;;12.77;0.85;;;6.30;99.90;;;;;;5011845;28;20026;-90
2021/12/20 04:17:31;;;;;;;17.52;1.50;;;6.30;99.90;;;;;;5011838;28;20375;-89
2021/12/20 04:19:56;;;;;;;20.77;1.70;;;6.30;99.90;;;;;;5010355;28;20076;-89
2021/12/20 04:22:22;;;;;;;17.48;1.27;;;6.30;99.90;;;;;;5012321;28;20413;-88
2021/12/20 04:24:48;;;;;;;15.35;1.10;;;6.30;99.90;;;;;;4996348;28;20570;-89
2021/12/20 04:27:13;;;;;;;20.98;1.45;;;6.30;99.90;;;;;;5012539;28;20485;-89
2021/12/20 04:29:39;;;;;;;22.20;1.70;;;6.30;99.90;;;;;;5010637;28;20077;-89
2021/12/20 04:32:05;;;;;;;22.95;1.92;;;6.30;99.90;;;;;;5010677;28;20030;-89
2021/12/20 04:34:31;;;;;;;23.52;1.23;;;6.30;99.90;;;;;;5010969;28;20027;-89
2021/12/20 04:36:57;;;;;;;22.70;1.48;;;6.30;99.90;;;;;;5010339;28;20083;-89
2021/12/20 04:39:27;;;;;;;16.05;1.17;;;6.30;99.90;;;;;;5011212;28;20754;-89
2021/12/20 04:41:52;;;;;;;26.20;1.90;;;6.30;99.90;;;;;;5027890;28;20022;-88
2021/12/20 04:44:18;;;;;;;14.07;1.15;;;6.30;99.90;;;;;;5010350;28;20036;-89
2021/12/20 04:46:43;;;;;;;23.48;1.27;;;6.20;99.90;;;;;;5011071;28;20380;-89
2021/12/20 04:49:09;;;;;;;20.40;1.42;;;6.20;99.90;;;;;;5025683;28;20044;-89
2021/12/20 04:51:35;;;;;;;26.88;1.70;;;6.20;99.90;;;;;;5009588;28;20091;-88
2021/12/20 04:54:01;;;;;;;22.45;2.10;;;6.20;99.90;;;;;;5011612;28;20026;-89
2021/12/20 04:56:26;;;;;;;20.08;1.60;;;6.20;99.90;;;;;;5005985;28;20033;-89
2021/12/20 04:58:52;;;;;;;19.85;1.60;;;6.20;99.90;;;;;;5010199;28;20049;-89
2021/12/20 05:01:17;;;;;;;24.80;1.73;;;6.20;99.90;;;;;;5012919;28;20401;-89
2021/12/20 05:03:43;;;;;;;24.05;1.65;;;6.20;99.90;;;;;;5010668;28;20021;-89
2021/12/20 05:06:09;;;;;;;19.08;1.63;;;6.30;99.90;;;;;;5008349;28;20034;-89
2021/12/20 05:08:45;;;;;;;19.98;1.73;;;6.20;99.90;;;;;;4999741;28;20038;-89
2021/12/20 05:11:10;;;;;;;15.95;1.40;;;6.20;99.90;;;;;;5010941;28;20222;-89
2021/12/20 05:13:36;;;;;;;14.30;1.20;;;6.20;99.90;;;;;;5014977;28;20049;-90
2021/12/20 05:16:02;;;;;;;17.65;1.92;;;6.20;99.90;;;;;;5012425;28;20026;-89
2021/12/20 05:18:27;;;;;;;12.93;1.33;;;6.30;99.90;;;;;;5007446;28;20029;-89
2021/12/20 05:20:53;;;;;;;31.15;2.28;;;6.30;99.90;;;;;;5011466;28;20041;-89
2021/12/20 05:23:18;;;;;;;18.40;1.27;;;6.20;99.90;;;;;;5011024;28;20474;-89
2021/12/20 05:25:44;;;;;;;13.60;1.25;;;6.30;99.90;;;;;;5008060;28;20034;-89
2021/12/20 05:28:09;;;;;;;24.67;1.40;;;6.20;99.90;;;;;;5006987;28;20018;-89
2021/12/20 05:30:36;;;;;;;18.95;2.03;;;6.30;99.90;;;;;;5008342;28;20038;-89
2021/12/20 05:33:02;;;;;;;20.27;1.73;;;6.30;99.90;;;;;;5010988;28;20033;-89
2021/12/20 05:35:28;;;;;;;16.58;1.20;;;6.20;99.90;;;;;;5022043;28;20033;-89
2021/12/20 05:37:54;;;;;;;15.02;1.60;;;6.30;99.90;;;;;;5029686;28;20022;-89
2021/12/20 05:40:20;;;;;;;16.58;1.48;;;6.30;99.90;;;;;;5015695;28;20062;-89
2021/12/20 05:42:46;;;;;;;22.13;1.70;;;6.30;99.90;;;;;;5013723;28;20026;-89
2021/12/20 05:45:13;;;;;;;13.88;0.70;;;6.20;99.90;;;;;;5015214;28;20084;-89
2021/12/20 05:47:39;;;;;;;13.20;1.05;;;6.30;99.90;;;;;;5010762;28;20022;-89
2021/12/20 05:50:06;;;;;;;16.42;1.27;;;6.30;99.90;;;;;;5018886;28;20052;-89
2021/12/20 05:52:32;;;;;;;11.63;0.80;;;6.20;99.90;;;;;;5006129;28;20032;-89
2021/12/20 05:54:58;;;;;;;16.35;1.23;;;6.20;99.90;;;;;;4998715;28;20030;-89
2021/12/20 05:57:23;;;;;;;14.13;1.30;;;6.20;99.90;;;;;;5017499;28;20028;-88
2021/12/20 05:59:49;;;;;;;19.23;1.70;;;6.20;99.90;;;;;;5018393;28;20076;-88
2021/12/20 06:02:15;;;;;;;22.42;1.50;;;6.20;99.90;;;;;;5017417;28;20037;-89
2021/12/20 06:04:40;;;;;;;25.17;2.00;;;6.20;99.90;;;;;;5016727;28;20030;-89
2021/12/20 06:07:08;;;;;;;15.05;1.42;;;6.20;99.90;;;;;;5016807;28;20025;-89
2021/12/20 06:09:34;;;;;;;18.27;1.40;;;6.10;99.90;;;;;;5012416;28;20064;-88
2021/12/20 06:11:59;;;;;;;20.15;1.33;;;6.10;99.90;;;;;;5019167;28;20029;-87
2021/12/20 06:14:29;;;;;;;16.17;1.27;;;6.10;99.90;;;;;;5032539;28;20035;-92
2021/12/20 06:16:57;;;;;;;16.88;1.33;;;6.20;99.90;;;;;;5018916;28;20033;-88
2021/12/20 06:19:24;;;;;;;17.67;1.08;;;6.10;99.90;;;;;;5016092;28;20064;-89
2021/12/20 06:21:50;;;;;;;24.15;2.13;;;6.10;99.90;;;;;;5013322;28;20038;-89
2021/12/20 06:24:16;;;;;;;24.23;2.00;;;6.10;99.90;;;;;;5016026;28;20026;-89
2021/12/20 06:26:42;;;;;;;18.58;1.05;;;6.10;99.90;;;;;;5013170;28;20156;-88
2021/12/20 06:29:07;;;;;;;10.55;1.17;;;6.10;99.90;;;;;;5012098;28;20038;-89
2021/12/20 06:31:33;;;;;;;16.63;1.10;;;6.10;99.90;;;;;;5014474;28;20105;-88
2021/12/20 06:33:58;;;;;;;20.60;0.93;;;6.00;99.90;;;;;;5012986;28;20018;-89
2021/12/20 06:36:26;;;;;;;22.55;1.75;;;6.00;99.90;;;;;;5011741;28;20026;-89
2021/12/20 06:38:53;;;;;;;11.02;0.73;;;6.00;99.90;;;;;;5012219;28;20568;-89
2021/12/20 06:41:19;;;;;;;19.33;1.05;;;6.00;99.90;;;;;;5016974;28;20022;-88
2021/12/20 06:43:44;;;;;;;13.15;0.95;;;5.90;99.90;;;;;;5019385;28;20500;-89
2021/12/20 06:46:10;;;;;;;21.17;1.50;;;5.90;99.90;;;;;;5023639;28;20041;-88
2021/12/20 06:48:36;;;;;;;26.00;1.38;;;5.90;99.90;;;;;;5027552;28;20482;-90
2021/12/20 06:51:01;;;;;;;15.68;1.63;;;5.90;99.90;;;;;;5017115;28;20034;-90
2021/12/20 06:53:27;;;;;;;11.82;1.00;;;5.90;99.90;;;;;;5014817;28;20026;-89
2021/12/20 06:55:53;;;;;;;13.50;1.20;;;5.80;99.90;;;;;;5009188;28;20019;-88
2021/12/20 06:58:19;;;;;;;21.50;1.38;;;5.80;99.90;;;;;;5000239;28;20058;-89
2021/12/20 07:00:44;;;;;;;15.23;1.38;;;5.80;99.90;;;;;;5012936;28;20036;-90
2021/12/20 07:03:10;;;;;;;15.63;1.27;;;5.70;99.90;;;;;;5011810;28;20037;-89
2021/12/20 07:05:36;;;;;;;16.45;1.10;;;5.80;99.90;;;;;;5013982;28;20049;-90
2021/12/20 07:08:02;;;;;;;22.10;1.63;;;5.70;99.90;;;;;;5014506;28;20033;-90
2021/12/20 07:10:28;;;;;;;13.25;0.98;;;5.70;99.90;;;;;;5013672;28;20022;-89
2021/12/20 07:12:55;;;;;;;27.48;2.05;;;5.70;99.90;;;;;;5014671;28;20022;-90
2021/12/20 07:15:21;;;;;;;23.42;1.65;;;5.70;99.90;;;;;;5014903;28;20026;-90
2021/12/20 07:17:46;;;;;;;20.45;2.28;;;5.60;99.90;;;;;;5010203;28;20087;-90
2021/12/20 07:20:12;;;;;;;22.33;2.30;;;5.60;99.90;;;;;;5006969;28;20030;-90
2021/12/20 07:22:38;;;;;;;21.77;1.77;;;5.60;99.90;;;;;;5015034;28;20474;-90
2021/12/20 07:25:05;;;;;;;16.30;2.03;;;5.60;99.90;;;;;;5014815;28;20395;-90
2021/12/20 07:27:31;;;;;;;23.23;2.35;;;5.60;99.90;;;;;;5017673;28;20052;-90
2021/12/20 07:29:57;;;;;;;14.48;1.08;;;5.60;99.90;;;;;;5000881;28;20034;-92
2021/12/20 07:32:23;;;;;;;20.27;1.50;;;5.60;99.90;;;;;;5011788;28;20054;-90
2021/12/20 07:34:49;;;;;;;14.68;2.38;;;5.60;99.90;;;;;;5007834;28;20057;-90
2021/12/20 07:37:15;;;;;;;17.98;1.90;;;5.60;99.90;;;;;;5014363;28;20041;-89
2021/12/20 07:39:40;;;;;;;15.57;2.05;;;5.50;99.90;;;;;;5016299;28;20038;-89
2021/12/20 07:42:07;;;;;;;20.50;2.08;;;5.50;99.90;;;;;;5015005;28;20026;-90
2021/12/20 07:44:33;;;;;;;14.38;1.60;;;5.50;99.90;;;;;;5013562;28;20123;-89
2021/12/20 07:46:58;;;;;;;20.15;1.73;;;5.60;99.90;;;;;;5015376;28;20061;-90
2021/12/20 07:49:24;;;;;;;15.32;1.45;;;5.60;99.90;;;;;;5013102;28;20033;-87
2021/12/20 07:51:51;;;;;;;17.50;1.65;;;5.50;99.90;;;;;;5015481;28;20026;-89
2021/12/20 07:54:18;;;;;;;19.90;1.67;;;5.60;99.90;;;;;;5009286;28;20018;-90
2021/12/20 07:56:44;;;;;;;16.52;1.35;;;5.60;99.90;;;;;;5013758;28;20057;-88
2021/12/20 07:59:09;;;;;;;13.68;1.83;;;5.60;99.90;;;;;;5012890;28;20084;-89
2021/12/20 08:01:35;;;;;;;18.05;2.10;;;5.60;99.90;;;;;;5009581;28;20034;-89
2021/12/20 08:04:02;;;;;;;17.92;2.40;;;5.60;99.90;;;;;;5014286;28;20081;-88
2021/12/20 08:06:28;;;;;;;18.45;2.00;;;5.60;99.90;;;;;;5015034;28;20037;-88
2021/12/20 08:08:53;;;;;;;23.77;1.52;;;5.60;99.90;;;;;;5007642;28;20117;-88
2021/12/20 08:11:19;;;;;;;22.58;3.70;;;5.60;99.90;;;;;;5012090;28;20037;-88
2021/12/20 08:13:44;;;;;;;14.35;1.30;;;5.60;99.90;;;;;;5014831;28;20025;-89
2021/12/20 08:16:15;;;;;;;21.35;1.38;;;5.70;99.90;;;;;;5027832;28;20120;-88
2021/12/20 08:18:42;;;;;;;11.07;1.52;;;5.70;99.90;;;;;;5025512;28;20030;-89
2021/12/20 08:21:08;;;;;;;13.73;1.08;;;5.70;99.90;;;;;;5015189;28;20387;-88
2021/12/20 08:23:34;;;;;;;15.38;1.90;;;5.70;99.90;;;;;;5012376;28;20385;-88
2021/12/20 08:26:00;;;;;;;21.40;1.58;;;5.70;99.90;;;;;;5013243;28;20033;-88
2021/12/20 08:28:27;;;;;;;9.52;0.90;;;5.70;99.90;;;;;;5001609;28;20164;-88
2021/12/20 08:30:52;;;;;;;14.50;1.08;;;5.80;99.90;;;;;;5015153;28;20030;-88
2021/12/20 08:33:18;;;;;;;13.00;0.93;;;5.80;99.90;;;;;;5016095;28;20037;-89
2021/12/20 08:35:44;;;;;;;16.85;0.98;;;5.80;99.90;;;;;;5030232;28;20025;-88
2021/12/20 08:38:09;;;;;;;17.75;1.30;;;5.90;99.90;;;;;;5009137;28;20386;-89
2021/12/20 08:40:36;;;;;;;13.20;1.33;;;5.90;99.90;;;;;;5012338;28;20033;-88
2021/12/20 08:43:02;;;;;;;11.88;0.80;;;5.90;99.90;;;;;;5014877;28;20812;-88
2021/12/20 08:45:28;;;;;;;18.00;0.90;;;6.00;99.90;;;;;;5010917;28;20042;-87
2021/12/20 08:47:53;;;;;;;11.13;1.13;;;6.00;99.90;;;;;;5004012;28;20028;-88
2021/12/20 08:50:21;;;;;;;18.70;1.50;;;6.00;99.90;;;;;;5014883;28;20052;-89
2021/12/20 08:52:47;;;;;;;14.40;1.85;;;6.10;99.90;;;;;;5014657;28;20018;-89
2021/12/20 08:55:14;;;;;;;12.23;1.33;;;6.10;99.90;;;;;;5008380;28;20072;-88
2021/12/20 08:57:40;;;;;;;12.70;1.42;;;6.10;99.90;;;;;;5003706;28;20021;-88
2021/12/20 09:00:09;;;;;;;11.32;1.15;;;6.10;99.90;;;;;;5013405;28;20053;-90
2021/12/20 09:02:35;;;;;;;13.77;1.42;;;6.20;99.90;;;;;;5008757;28;20084;-90
2021/12/20 09:05:00;;;;;;;15.68;1.23;;;6.20;99.90;;;;;;5015878;28;20069;-89
2021/12/20 09:07:27;;;;;;;19.15;1.70;;;6.20;99.90;;;;;;5005615;28;20113;-88
2021/12/20 09:09:52;;;;;;;24.52;1.60;;;6.30;99.90;;;;;;5012400;28;20030;-89
2021/12/20 09:12:19;;;;;;;16.58;1.80;;;6.30;99.90;;;;;;5016696;28;20022;-92
2021/12/20 09:14:45;;;;;;;18.17;2.05;;;6.30;99.90;;;;;;5019386;28;20030;-94
2021/12/20 09:17:11;;;;;;;17.00;1.00;;;6.30;99.90;;;;;;5017274;28;20029;-88
2021/12/20 09:19:37;;;;;;;12.18;1.10;;;6.40;99.90;;;;;;5011819;28;20026;-90
2021/12/20 09:22:06;;;;;;;10.90;1.55;;;6.40;99.90;;;;;;5010579;28;20114;-88
2021/12/20 09:24:33;;;;;;;12.70;1.17;;;6.40;99.90;;;;;;4997207;28;20027;-88
2021/12/20 09:27:00;;;;;;;12.45;1.10;;;6.50;99.90;;;;;;5018452;28;20062;-89
2021/12/20 09:29:25;;;;;;;15.55;1.73;;;6.50;99.90;;;;;;5016789;28;20029;-89
2021/12/20 09:31:51;;;;;;;24.50;1.55;;;6.60;99.90;;;;;;5012066;28;20034;-88
2021/12/20 09:34:18;;;;;;;16.15;1.42;;;6.60;99.90;;;;;;5018370;28;20018;-88
2021/12/20 09:36:43;;;;;;;18.20;1.92;;;6.70;99.90;;;;;;5015349;28;20080;-88
2021/12/20 09:39:11;;;;;;;19.23;1.52;;;6.60;99.90;;;;;;5016000;28;20437;-88
2021/12/20 09:44:08;;;;;;;19.10;1.50;;;6.70;99.90;;;;;;5016327;28;20022;-88
2021/12/20 09:46:34;;;;;;;12.50;1.15;;;6.70;99.90;;;;;;5006855;28;20121;-88
2021/12/20 09:49:00;;;;;;;18.80;1.73;;;6.80;99.90;;;;;;5013683;28;20014;-89
2021/12/20 09:51:26;;;;;;;18.80;1.30;;;6.80;99.90;;;;;;5031699;28;20037;-89
2021/12/20 09:53:54;;;;;;;23.40;2.05;;;6.80;99.90;;;;;;5011975;28;20426;-90
2021/12/20 09:56:23;;;;;;;15.52;1.58;;;6.90;99.90;;;;;;5015872;28;20092;-88
2021/12/20 09:58:53;;;;;;;10.55;1.25;;;6.90;99.90;;;;;;5017837;28;20062;-89
2021/12/20 10:01:20;;;;;;;12.18;1.30;;;7.00;99.90;;;;;;5011870;28;20030;-90
2021/12/20 10:03:47;;;;;;;11.23;1.00;;;7.00;99.90;;;;;;5012013;28;20475;-91
2021/12/20 10:06:14;;;;;;;14.63;1.63;;;7.10;99.90;;;;;;5014542;28;20034;-90
2021/12/20 10:08:49;;;;;;;17.02;2.05;;;7.10;99.90;;;;;;5015278;28;20026;-90
2021/12/20 10:11:27;;;;;;;15.05;1.17;;;7.10;99.90;;;;;;5014102;28;20030;-90
2021/12/20 10:14:14;;;;;;;12.75;1.35;;;7.10;99.90;;;;;;5011729;28;20026;-90
2021/12/20 10:16:41;;;;;;;12.88;1.00;;;7.10;99.90;;;;;;5011642;28;20034;-90
2021/12/20 10:19:29;;;;;;;18.13;1.65;;;7.00;99.90;;;;;;5014212;28;20390;-90
2021/12/20 10:21:57;;;;;;;11.27;1.25;;;7.00;99.90;;;;;;5012403;28;20037;-90
2021/12/20 10:24:34;;;;;;;20.10;1.25;;;6.90;99.90;;;;;;5007213;28;20027;-87
2021/12/20 10:26:59;;;;;;;15.70;1.17;;;6.80;99.90;;;;;;5017875;28;20569;-88
2021/12/20 10:29:25;;;;;;;14.32;1.70;;;6.80;99.90;;;;;;5014539;28;20032;-87
2021/12/20 10:31:52;;;;;;;13.82;1.23;;;6.80;99.90;;;;;;5016787;28;20037;-87
2021/12/20 10:34:28;;;;;;;11.63;2.00;;;6.70;99.90;;;;;;5018493;28;20022;-88
2021/12/20 10:36:56;;;;;;;9.43;1.02;;;6.70;99.90;;;;;;5024507;28;20037;-87
2021/12/20 10:39:38;;;;;;;8.38;1.00;;;6.60;99.90;;;;;;5030469;28;20029;-87
2021/12/20 10:42:14;;;;;;;12.90;1.08;;;6.70;99.90;;;;;;5018121;28;20021;-88
2021/12/20 10:44:40;;;;;;;12.70;0.90;;;6.60;99.90;;;;;;5017446;28;20026;-85
2021/12/20 10:47:06;;;;;;;16.80;1.08;;;6.60;99.90;;;;;;5016379;28;20071;-88
2021/12/20 10:49:32;;;;;;;8.48;0.90;;;6.50;99.90;;;;;;5017265;28;20045;-88
2021/12/20 10:51:59;;;;;;;11.07;1.30;;;6.50;99.90;;;;;;5017851;28;20448;-89
2021/12/20 10:54:30;;;;;;;13.60;1.05;;;6.50;99.90;;;;;;5015189;28;20437;-89
2021/12/20 10:57:00;;;;;;;13.98;1.40;;;6.60;99.90;;;;;;5012479;28;20124;-89
2021/12/20 10:59:28;;;;;;;17.75;1.55;;;6.70;99.90;;;;;;5007430;28;20093;-88
2021/12/20 11:04:57;;;;;;;16.67;1.40;;;6.80;99.90;;;;;;5000329;28;20088;-88
2021/12/20 11:09:52;;;;;;;14.77;1.77;;;6.90;99.90;;;;;;5003606;28;20553;-88
2021/12/20 11:12:24;;;;;;;12.90;1.67;;;6.90;99.90;;;;;;5008376;28;20034;-88
2021/12/20 11:14:54;;;;;;;11.70;1.17;;;7.00;99.90;;;;;;5003971;28;20109;-89
2021/12/20 11:17:22;;;;;;;23.98;2.03;;;6.90;99.90;;;;;;5008165;28;20475;-88
2021/12/20 11:19:50;;;;;;;10.50;1.13;;;6.90;99.90;;;;;;5013711;28;20537;-91
2021/12/20 11:22:19;;;;;;;15.68;1.73;;;6.90;99.90;;;;;;5013935;28;20391;-90
2021/12/20 11:24:49;;;;;;;10.48;1.00;;;6.90;99.90;;;;;;5015574;28;20092;-91
2021/12/20 11:27:32;;;;;;;13.98;1.75;;;7.00;99.90;;;;;;5015723;28;20038;-90
2021/12/20 11:30:00;;;;;;;15.77;1.20;;;7.00;99.90;;;;;;5016016;28;20054;-90
2021/12/20 11:32:27;;;;;;;16.00;1.50;;;7.10;99.90;;;;;;5008396;28;20026;-90
2021/12/20 11:34:53;;;;;;;15.55;1.20;;;7.20;99.90;;;;;;5015346;28;20065;-90
2021/12/20 11:37:25;;;;;;;17.42;1.67;;;7.20;99.90;;;;;;5015469;28;20088;-90
2021/12/20 11:39:52;;;;;;;19.42;1.70;;;7.20;99.90;;;;;;5016142;28;20037;-90
2021/12/20 11:42:18;;;;;;;22.88;2.15;;;7.20;99.90;;;;;;5014659;28;20036;-89
2021/12/20 11:44:46;;;;;;;18.15;1.85;;;7.10;99.90;;;;;;5014995;28;20093;-89
2021/12/20 11:47:39;;;;;;;12.00;1.52;;;7.20;99.90;;;;;;5013972;28;20033;-91
2021/12/20 11:50:08;;;;;;;17.00;1.30;;;7.10;99.90;;;;;;5029644;28;20049;-89
2021/12/20 11:52:35;;;;;;;20.63;1.65;;;7.10;99.90;;;;;;5015640;28;20026;-90
2021/12/20 11:55:14;;;;;;;40.50;2.45;;;7.00;99.90;;;;;;5013279;28;20018;-88
2021/12/20 11:57:45;;;;;;;20.02;1.95;;;7.00;99.90;;;;;;5025081;28;20034;-90
2021/12/20 12:00:29;;;;;;;16.55;1.50;;;7.00;99.90;;;;;;5008246;28;20049;-90
2021/12/20 12:03:02;;;;;;;19.20;1.77;;;6.90;99.90;;;;;;5004868;28;20486;-87
2021/12/20 12:05:39;;;;;;;19.52;2.25;;;6.80;99.90;;;;;;5012872;28;20060;-88
2021/12/20 12:08:35;;;;;;;20.05;3.20;;;6.80;99.90;;;;;;5010758;28;20364;-90
2021/12/20 12:11:09;;;;;;;18.05;2.83;;;6.70;99.90;;;;;;5012718;28;20033;-89
2021/12/20 12:13:51;;;;;;;18.45;2.92;;;6.60;99.90;;;;;;5013736;28;20101;-89
2021/12/20 12:16:31;;;;;;;13.55;1.83;;;6.70;99.90;;;;;;5012835;28;20033;-89
2021/12/20 12:18:58;;;;;;;22.98;1.90;;;6.70;99.90;;;;;;5009858;28;20022;-88
2021/12/20 12:21:39;;;;;;;17.75;2.13;;;6.80;99.90;;;;;;5007528;28;20384;-89
2021/12/20 12:24:14;;;;;;;22.25;1.98;;;6.70;99.90;;;;;;5012690;28;20504;-89
2021/12/20 12:26:47;;;;;;;22.92;2.13;;;6.70;99.90;;;;;;5009473;28;20030;-89
2021/12/20 12:29:19;;;;;;;;;;;6.60;99.90;;;;;;5010036;28;20117;-90
2021/12/20 12:31:57;;;;;;;20.05;2.80;;;6.60;99.90;;;;;;5008047;28;19947;-89
2021/12/20 12:34:25;;;;;;;25.52;1.95;;;6.50;99.90;;;;;;5014132;28;20057;-90
2021/12/20 12:37:10;;;;;;;14.02;1.27;;;6.50;99.90;;;;;;5011930;28;20021;-91
2021/12/20 12:39:36;;;;;;;18.35;1.73;;;6.40;99.90;;;;;;5013321;28;20116;-88
2021/12/20 12:42:02;;;;;;;20.10;1.92;;;6.40;99.90;;;;;;5010131;28;20072;-90
2021/12/20 12:44:33;;;;;;;19.35;1.88;;;6.50;99.90;;;;;;5007266;28;20026;-89
2021/12/20 12:47:07;;;;;;;19.08;2.00;;;6.50;99.90;;;;;;5002572;28;20113;-89
2021/12/20 12:49:36;;;;;;;23.50;1.38;;;6.50;99.90;;;;;;5020328;28;20406;-90
2021/12/20 12:52:03;;;;;;;12.40;1.00;;;6.50;99.90;;;;;;5020448;28;20575;-89
2021/12/20 12:54:32;;;;;;;14.70;1.20;;;6.40;99.90;;;;;;5019265;28;20072;-88
2021/12/20 12:57:18;;;;;;;15.63;1.48;;;6.40;99.90;;;;;;5012108;28;20084;-90
2021/12/20 12:59:47;;;;;;;22.33;1.55;;;6.30;99.90;;;;;;5013813;28;20379;-90
2021/12/20 13:02:22;;;;;;;27.27;2.63;;;6.30;99.90;;;;;;5012585;28;20038;-91
2021/12/20 13:04:51;;;;;;;17.27;1.67;;;6.20;99.90;;;;;;5013427;28;20433;-89
2021/12/20 13:07:24;;;;;;;12.27;0.93;;;6.20;99.90;;;;;;5012512;28;20080;-89
2021/12/20 13:09:52;;;;;;;13.38;1.40;;;6.10;99.90;;;;;;5013819;28;20030;-90
2021/12/20 13:12:32;;;;;;;19.75;2.22;;;6.10;99.90;;;;;;5016949;28;20034;-90